Time;durP1;ratioP1;P1;durP2;ratioP2;P2;SDS_P1;SDS_P2;PMS_P1;PMS_P2;Temp;Humidity;BMP_temperature;BMP_pressure;BME280_temperature;BME280_humidity;BME280_pressure;Samples;Min_cycle;Max_cycle;Signal;HPM_P1;HPM_P2
2021/12/14 00:00:53;;;;;;;24.57;16.57;;;5.50;77.50;;;;;;4981221;28;20035;-81
2021/12/14 00:03:26;;;;;;;22.37;16.30;;;5.60;77.40;;;;;;4991237;28;20049;-81
2021/12/14 00:05:53;;;;;;;34.60;16.67;;;5.60;77.40;;;;;;4969933;28;20481;-81
2021/12/14 00:08:19;;;;;;;23.33;16.67;;;5.60;77.30;;;;;;4996348;28;20030;-81
2021/12/14 00:15:51;;;;;;;32.80;18.07;;;5.60;77.00;;;;;;4983411;28;20030;-80
2021/12/14 00:18:17;;;;;;;30.47;17.07;;;5.60;76.90;;;;;;4990162;28;20034;-81
2021/12/14 00:20:53;;;;;;;21.70;15.20;;;5.60;76.80;;;;;;4981555;28;20022;-81
2021/12/14 00:26:07;;;;;;;22.67;14.80;;;5.60;77.10;;;;;;4994753;28;20042;-81
2021/12/14 00:28:34;;;;;;;19.90;13.60;;;5.60;77.10;;;;;;4965453;28;20085;-81
2021/12/14 00:31:02;;;;;;;18.00;13.03;;;5.60;76.90;;;;;;4981012;28;20034;-80
2021/12/14 00:33:32;;;;;;;18.40;12.77;;;5.60;77.10;;;;;;4978493;28;20034;-81
2021/12/14 00:36:00;;;;;;;18.43;13.37;;;5.60;77.10;;;;;;4971840;28;20154;-81
2021/12/14 00:38:26;;;;;;;19.83;13.73;;;5.60;77.20;;;;;;4986273;28;20037;-81
2021/12/14 00:40:58;;;;;;;38.20;15.70;;;5.60;77.20;;;;;;4987750;28;20031;-81
2021/12/14 00:43:25;;;;;;;32.63;15.20;;;5.60;76.90;;;;;;4972548;28;20474;-81
2021/12/14 00:45:51;;;;;;;39.77;16.03;;;5.50;76.90;;;;;;4973021;28;20023;-81
2021/12/14 00:48:17;;;;;;;29.70;15.40;;;5.40;76.90;;;;;;4972034;28;20022;-81
2021/12/14 00:50:48;;;;;;;36.03;16.97;;;5.40;77.30;;;;;;4984965;28;20037;-81
2021/12/14 00:53:14;;;;;;;30.73;15.57;;;5.40;77.50;;;;;;4986205;28;20417;-81
2021/12/14 00:55:44;;;;;;;22.80;15.00;;;5.40;77.40;;;;;;4974392;28;20026;-81
2021/12/14 00:58:11;;;;;;;21.83;14.03;;;5.40;77.50;;;;;;4984150;28;20040;-81
2021/12/14 01:00:42;;;;;;;22.63;13.33;;;5.50;77.40;;;;;;4980997;28;20076;-81
2021/12/14 01:03:09;;;;;;;28.60;15.85;;;5.40;77.20;;;;;;4979897;28;20479;-81
2021/12/14 01:05:38;;;;;;;19.80;14.30;;;5.50;77.30;;;;;;4965016;28;20085;-81
2021/12/14 01:08:08;;;;;;;26.80;14.33;;;5.50;77.40;;;;;;4967799;28;20079;-81
2021/12/14 01:10:40;;;;;;;32.53;15.47;;;5.50;77.20;;;;;;4971909;28;20102;-81
2021/12/14 01:13:08;;;;;;;29.03;14.43;;;5.50;77.60;;;;;;4985799;28;20029;-81
2021/12/14 01:21:19;;;;;;;24.63;14.23;;;5.50;77.60;;;;;;4991825;28;20525;-81
2021/12/14 01:23:46;;;;;;;21.07;14.77;;;5.50;77.50;;;;;;4981597;28;20041;-81
2021/12/14 01:26:16;;;;;;;23.67;15.20;;;5.60;77.60;;;;;;4978733;28;20520;-81
2021/12/14 01:28:43;;;;;;;32.23;15.00;;;5.50;77.30;;;;;;4964628;28;20123;-81
2021/12/14 01:31:27;;;;;;;19.53;13.50;;;5.50;77.20;;;;;;4972317;28;20039;-81
2021/12/14 01:34:01;;;;;;;26.27;14.93;;;5.50;77.30;;;;;;4991269;28;20030;-81
2021/12/14 01:41:38;;;;;;;28.70;14.50;;;5.50;77.50;;;;;;4989896;28;20390;-81
2021/12/14 01:44:05;;;;;;;26.50;14.77;;;5.50;77.30;;;;;;4997492;28;20022;-81
2021/12/14 01:46:36;;;;;;;20.97;13.87;;;5.50;77.50;;;;;;4991035;28;20113;-81
2021/12/14 01:49:07;;;;;;;22.60;15.00;;;5.50;77.40;;;;;;4996537;28;20017;-81
2021/12/14 01:51:34;;;;;;;23.20;15.30;;;5.50;77.40;;;;;;4995504;28;20083;-81
2021/12/14 01:54:01;;;;;;;22.43;15.50;;;5.50;77.20;;;;;;4973260;28;20155;-81
2021/12/14 01:56:29;;;;;;;20.53;14.03;;;5.50;77.50;;;;;;4978693;28;20557;-81
2021/12/14 01:59:00;;;;;;;19.90;12.83;;;5.50;77.60;;;;;;4987078;28;20105;-81
2021/12/14 02:01:36;;;;;;;20.67;13.50;;;5.50;77.30;;;;;;4980582;28;20034;-81
2021/12/14 02:04:12;;;;;;;16.63;12.23;;;5.50;78.00;;;;;;4982238;28;20165;-81
2021/12/14 02:06:38;;;;;;;234.87;24.97;;;5.50;77.30;;;;;;4982729;28;20035;-81
2021/12/14 02:09:08;;;;;;;22.83;13.90;;;5.50;77.40;;;;;;4960092;28;20483;-81
2021/12/14 02:11:37;;;;;;;20.20;13.73;;;5.40;77.40;;;;;;4958690;28;20042;-81
2021/12/14 02:14:04;;;;;;;29.63;13.57;;;5.40;77.70;;;;;;4960020;28;20035;-81
2021/12/14 02:16:30;;;;;;;21.93;12.93;;;5.40;77.60;;;;;;4957582;28;20035;-81
2021/12/14 02:19:00;;;;;;;21.77;13.13;;;5.40;77.80;;;;;;4978030;28;20034;-81
2021/12/14 02:21:27;;;;;;;19.70;12.70;;;5.40;77.60;;;;;;4958901;28;20041;-80
2021/12/14 02:23:55;;;;;;;18.83;13.87;;;5.40;77.40;;;;;;4982610;28;20054;-81
2021/12/14 02:26:25;;;;;;;16.67;12.37;;;5.50;77.50;;;;;;4977744;28;20054;-81
2021/12/14 02:28:52;;;;;;;18.23;12.10;;;5.40;77.20;;;;;;4957643;28;20026;-81
2021/12/14 02:31:22;;;;;;;16.37;12.30;;;5.30;77.30;;;;;;4967922;28;20030;-81
2021/12/14 02:33:51;;;;;;;18.33;12.13;;;5.40;77.70;;;;;;4980934;28;20117;-81
2021/12/14 02:36:27;;;;;;;16.33;11.30;;;5.40;77.50;;;;;;4979405;28;20049;-81
2021/12/14 02:39:06;;;;;;;18.17;11.23;;;5.40;77.40;;;;;;4974713;28;20070;-81
2021/12/14 02:41:41;;;;;;;28.27;12.73;;;5.30;77.20;;;;;;4957542;28;21169;-81
2021/12/14 02:44:08;;;;;;;17.03;11.77;;;5.30;77.50;;;;;;4960160;28;20469;-81
2021/12/14 02:46:39;;;;;;;20.37;11.47;;;5.20;77.40;;;;;;4965180;28;20026;-81
2021/12/14 02:49:09;;;;;;;17.23;11.77;;;5.20;77.40;;;;;;4979529;28;20065;-81
2021/12/14 02:51:40;;;;;;;21.20;10.73;;;5.20;77.20;;;;;;4961255;28;20086;-81
2021/12/14 02:54:12;;;;;;;15.67;10.63;;;5.20;77.30;;;;;;4958418;28;20042;-81
2021/12/14 02:56:39;;;;;;;17.90;11.38;;;5.20;77.30;;;;;;4964934;28;20413;-81
2021/12/14 02:59:16;;;;;;;22.23;11.77;;;5.20;77.10;;;;;;4960496;28;20148;-81
2021/12/14 03:01:45;;;;;;;22.97;11.27;;;5.10;76.90;;;;;;4968118;28;20083;-81
2021/12/14 03:04:12;;;;;;;21.70;10.90;;;5.00;77.10;;;;;;4966910;28;20023;-81
2021/12/14 03:06:46;;;;;;;25.80;11.40;;;5.00;77.50;;;;;;4989865;28;20030;-81
2021/12/14 03:09:36;;;;;;;26.70;10.87;;;5.10;77.20;;;;;;4965310;28;20034;-81
2021/12/14 03:12:27;;;;;;;21.77;10.87;;;5.10;77.40;;;;;;4979686;28;20022;-81
2021/12/14 03:15:19;;;;;;;14.97;10.80;;;5.10;77.20;;;;;;4989466;28;20065;-81
2021/12/14 03:17:47;;;;;;;20.10;11.57;;;5.20;77.30;;;;;;4971978;28;20054;-81
2021/12/14 03:20:41;;;;;;;27.93;12.80;;;5.10;77.20;;;;;;4992343;28;20034;-81
2021/12/14 03:23:09;;;;;;;21.93;11.40;;;5.20;77.30;;;;;;4978284;28;20458;-81
2021/12/14 03:25:38;;;;;;;12.00;8.47;;;5.20;77.30;;;;;;4969695;28;20054;-81
2021/12/14 03:28:06;;;;;;;12.23;9.07;;;5.20;77.20;;;;;;4977311;28;20552;-81
2021/12/14 03:30:36;;;;;;;11.23;8.47;;;5.20;77.30;;;;;;4984047;28;20037;-81
2021/12/14 03:33:13;;;;;;;13.63;9.50;;;5.20;77.30;;;;;;4985965;28;20067;-81
2021/12/14 03:35:44;;;;;;;13.50;9.90;;;5.20;77.20;;;;;;4971623;28;20082;-81
2021/12/14 03:38:21;;;;;;;16.93;10.97;;;5.20;77.40;;;;;;4975090;28;20037;-81
2021/12/14 03:41:06;;;;;;;13.43;9.33;;;5.20;77.00;;;;;;4992027;28;20042;-81
2021/12/14 03:43:33;;;;;;;50.33;12.70;;;5.20;77.40;;;;;;4991013;28;20022;-81
2021/12/14 03:46:00;;;;;;;11.90;8.97;;;5.20;77.60;;;;;;4973717;28;20030;-81
2021/12/14 03:48:28;;;;;;;10.60;8.00;;;5.20;77.70;;;;;;4975107;28;20030;-81
2021/12/14 03:50:54;;;;;;;12.60;8.83;;;5.30;77.80;;;;;;4995062;28;20030;-81
2021/12/14 03:53:21;;;;;;;11.37;8.77;;;5.30;77.60;;;;;;4996623;28;20030;-81
2021/12/14 03:55:56;;;;;;;12.57;8.03;;;5.40;77.70;;;;;;4993548;28;20390;-81
2021/12/14 03:58:30;;;;;;;11.47;8.57;;;5.30;77.30;;;;;;4980654;28;20038;-81
2021/12/14 04:01:09;;;;;;;10.83;8.07;;;5.30;77.40;;;;;;4972982;28;20069;-81
2021/12/14 04:03:36;;;;;;;11.80;9.27;;;5.30;77.70;;;;;;4971693;28;20574;-81
2021/12/14 04:06:03;;;;;;;15.43;8.57;;;5.30;77.50;;;;;;4962570;28;20397;-81
2021/12/14 04:08:30;;;;;;;18.03;9.77;;;5.30;77.50;;;;;;4984439;28;20439;-81
2021/12/14 04:10:58;;;;;;;16.63;9.73;;;5.30;77.40;;;;;;4964546;28;20018;-81
2021/12/14 04:13:29;;;;;;;14.43;9.67;;;5.30;77.30;;;;;;4983426;28;20053;-81
2021/12/14 04:15:56;;;;;;;16.80;9.63;;;5.30;77.20;;;;;;4964645;28;20027;-81
2021/12/14 04:18:22;;;;;;;21.80;10.63;;;5.20;77.20;;;;;;4989994;28;20049;-81
2021/12/14 04:20:50;;;;;;;15.83;9.70;;;5.20;77.10;;;;;;4967687;28;20090;-81
2021/12/14 04:23:20;;;;;;;20.27;10.63;;;5.20;77.30;;;;;;4969935;28;20030;-81
2021/12/14 04:25:48;;;;;;;17.50;10.07;;;5.10;77.20;;;;;;4984127;28;20023;-81
2021/12/14 04:28:22;;;;;;;14.97;9.57;;;5.10;77.30;;;;;;4989143;28;20041;-81
2021/12/14 04:30:48;;;;;;;12.90;8.83;;;5.10;77.50;;;;;;4990142;28;20030;-81
2021/12/14 04:33:18;;;;;;;11.70;9.07;;;5.20;77.60;;;;;;4971524;28;20505;-81
2021/12/14 04:35:46;;;;;;;11.37;8.53;;;5.20;77.40;;;;;;4979417;28;20023;-81
2021/12/14 04:38:22;;;;;;;11.40;8.90;;;5.20;77.30;;;;;;4974190;28;20125;-81
2021/12/14 04:51:58;;;;;;;11.30;7.47;;;5.10;77.30;;;;;;4990389;28;20041;-81
2021/12/14 04:54:45;;;;;;;10.52;7.63;;;5.10;77.20;;;;;;4980030;28;20481;-81
2021/12/14 04:57:24;;;;;;;11.37;7.93;;;5.10;77.40;;;;;;4977314;28;20494;-81
2021/12/14 04:59:51;;;;;;;13.20;8.33;;;5.10;77.30;;;;;;4965629;28;20084;-81
2021/12/14 05:02:21;;;;;;;12.40;9.10;;;5.20;77.40;;;;;;4983127;28;20102;-81
2021/12/14 05:04:47;;;;;;;14.83;9.20;;;5.20;77.40;;;;;;4978564;28;20019;-80
2021/12/14 05:10:00;;;;;;;13.60;10.23;;;5.30;77.30;;;;;;4996079;28;20027;-81
2021/12/14 05:12:29;;;;;;;14.33;10.23;;;5.40;77.00;;;;;;4973179;28;20030;-81
2021/12/14 05:14:58;;;;;;;14.73;9.87;;;5.30;77.00;;;;;;4981873;28;20456;-81
2021/12/14 05:17:27;;;;;;;16.57;9.77;;;5.30;77.30;;;;;;4978794;28;20030;-80
2021/12/14 05:19:53;;;;;;;13.67;9.77;;;5.30;77.10;;;;;;4959687;28;20125;-81
2021/12/14 05:22:33;;;;;;;12.60;8.60;;;5.30;77.30;;;;;;4982109;28;20102;-80
2021/12/14 05:25:04;;;;;;;11.50;8.30;;;5.30;77.10;;;;;;4971307;28;20048;-81
2021/12/14 05:27:34;;;;;;;30.73;9.47;;;5.30;77.10;;;;;;4961394;28;20098;-80
2021/12/14 05:30:11;;;;;;;12.03;8.77;;;5.20;77.10;;;;;;4983038;28;20116;-81
2021/12/14 05:32:37;;;;;;;16.07;9.50;;;5.10;77.20;;;;;;4967706;28;20117;-81
2021/12/14 05:35:04;;;;;;;16.40;8.90;;;5.10;77.20;;;;;;4984088;28;20018;-81
2021/12/14 05:37:34;;;;;;;18.10;9.47;;;5.10;77.20;;;;;;4964751;28;20037;-80
2021/12/14 05:40:05;;;;;;;16.17;9.50;;;5.00;77.20;;;;;;4967013;28;20382;-80
2021/12/14 05:45:21;;;;;;;17.37;8.90;;;5.00;77.20;;;;;;4986663;28;20518;-81
2021/12/14 05:47:54;;;;;;;12.03;8.47;;;4.90;77.30;;;;;;4959325;28;20046;-81
2021/12/14 05:50:50;;;;;;;13.82;8.73;;;4.90;77.30;;;;;;4991301;28;20051;-81
2021/12/14 05:53:28;;;;;;;12.17;8.23;;;5.00;77.30;;;;;;4976421;28;20061;-80
2021/12/14 05:55:55;;;;;;;23.93;10.03;;;4.90;77.10;;;;;;4957866;28;20046;-80
2021/12/14 05:58:23;;;;;;;11.73;8.97;;;5.00;77.30;;;;;;4975975;28;20030;-81
2021/12/14 06:00:54;;;;;;;13.53;8.40;;;5.00;77.30;;;;;;4958060;28;20033;-81
2021/12/14 06:03:32;;;;;;;14.37;8.57;;;5.00;77.70;;;;;;4985708;28;20018;-81
2021/12/14 06:06:01;;;;;;;12.00;8.57;;;5.00;77.50;;;;;;4957653;28;20030;-81
2021/12/14 06:08:35;;;;;;;15.77;11.37;;;5.00;77.30;;;;;;4983323;28;20069;-80
2021/12/14 06:11:02;;;;;;;12.20;9.00;;;5.00;77.20;;;;;;4985078;28;20601;-81
2021/12/14 06:13:43;;;;;;;12.07;7.93;;;5.00;77.10;;;;;;4970553;28;20052;-81
2021/12/14 06:16:25;;;;;;;18.97;8.60;;;5.00;77.30;;;;;;4986963;28;20482;-81
2021/12/14 06:18:52;;;;;;;13.40;8.45;;;5.10;77.00;;;;;;4972324;28;20494;-81
2021/12/14 06:21:31;;;;;;;15.83;7.93;;;5.00;77.00;;;;;;4964429;28;20078;-81
2021/12/14 06:24:03;;;;;;;11.73;6.83;;;5.00;77.30;;;;;;4983477;28;20026;-81
2021/12/14 06:26:55;;;;;;;12.32;7.25;;;5.00;77.20;;;;;;4961900;28;20506;-81
2021/12/14 06:29:30;;;;;;;9.73;7.30;;;5.00;77.40;;;;;;4965197;28;20537;-81
2021/12/14 06:32:04;;;;;;;13.83;8.23;;;5.10;77.20;;;;;;4984206;28;20030;-81
2021/12/14 06:34:30;;;;;;;15.70;10.70;;;5.10;77.50;;;;;;4967873;28;20130;-81
2021/12/14 06:37:19;;;;;;;11.37;8.87;;;5.20;77.80;;;;;;4989446;28;20035;-81
2021/12/14 06:40:09;;;;;;;12.00;8.87;;;5.10;76.80;;;;;;4989750;28;20034;-81
2021/12/14 06:42:39;;;;;;;14.53;10.90;;;5.10;77.00;;;;;;4970571;28;20113;-81
2021/12/14 06:45:12;;;;;;;15.53;10.90;;;5.20;76.90;;;;;;4968040;28;20045;-81
2021/12/14 06:47:40;;;;;;;11.82;8.90;;;5.10;76.70;;;;;;4955021;28;20113;-81
2021/12/14 06:50:09;;;;;;;11.63;7.73;;;5.10;77.20;;;;;;4980368;28;20494;-81
2021/12/14 06:52:36;;;;;;;11.53;8.17;;;5.10;76.90;;;;;;4980335;28;20045;-81
2021/12/14 06:55:04;;;;;;;13.53;9.97;;;5.00;77.00;;;;;;4984900;28;20453;-81
2021/12/14 06:57:30;;;;;;;15.33;10.73;;;5.00;77.30;;;;;;4979514;28;20522;-80
2021/12/14 06:59:57;;;;;;;12.90;8.80;;;5.10;77.20;;;;;;4981908;28;20064;-81
2021/12/14 07:02:25;;;;;;;10.67;8.00;;;5.00;76.90;;;;;;4960308;28;20042;-81
2021/12/14 07:04:51;;;;;;;12.87;9.27;;;5.00;77.30;;;;;;4988873;28;20030;-80
2021/12/14 07:07:24;;;;;;;13.50;9.23;;;5.00;77.30;;;;;;4980899;28;20019;-80
2021/12/14 07:09:54;;;;;;;11.37;7.93;;;5.10;77.60;;;;;;4960357;28;20031;-81
2021/12/14 07:12:31;;;;;;;14.53;9.60;;;5.10;77.30;;;;;;4974769;28;20022;-81
2021/12/14 07:15:06;;;;;;;14.80;9.60;;;5.10;77.30;;;;;;4962967;28;20038;-81
2021/12/14 07:17:42;;;;;;;15.37;10.57;;;5.10;77.10;;;;;;4985958;28;20034;-81
2021/12/14 07:20:21;;;;;;;18.20;12.87;;;5.10;76.90;;;;;;4959375;28;20085;-80
2021/12/14 07:22:50;;;;;;;16.47;9.53;;;5.10;77.00;;;;;;4987508;28;20038;-81
2021/12/14 07:25:20;;;;;;;16.50;11.23;;;5.20;76.90;;;;;;4971870;28;20022;-81
2021/12/14 07:27:47;;;;;;;17.63;11.87;;;5.10;77.00;;;;;;4980401;28;20042;-80
2021/12/14 07:30:19;;;;;;;24.00;14.07;;;5.10;76.90;;;;;;4977800;28;20084;-80
2021/12/14 07:32:59;;;;;;;19.73;13.73;;;5.20;76.90;;;;;;4976631;28;20031;-80
2021/12/14 07:35:39;;;;;;;12.20;8.40;;;5.20;76.70;;;;;;4957248;28;20031;-81
2021/12/14 07:38:14;;;;;;;9.20;6.70;;;5.10;76.50;;;;;;4976628;28;20094;-80
2021/12/14 07:40:43;;;;;;;8.33;6.57;;;5.10;76.70;;;;;;4962281;28;20031;-80
2021/12/14 07:43:30;;;;;;;11.63;6.60;;;5.10;76.90;;;;;;4977498;28;20026;-80
2021/12/14 07:45:57;;;;;;;9.00;6.53;;;5.10;76.80;;;;;;4972204;28;20541;-80
2021/12/14 07:48:43;;;;;;;13.83;10.17;;;5.10;76.70;;;;;;4979768;28;20478;-81
2021/12/14 07:51:10;;;;;;;11.77;7.90;;;5.10;76.80;;;;;;4964740;28;20035;-80
2021/12/14 07:53:49;;;;;;;9.40;6.37;;;5.20;77.10;;;;;;4966839;28;20080;-80
2021/12/14 07:56:29;;;;;;;7.37;5.00;;;5.30;77.10;;;;;;4972514;28;20062;-80
2021/12/14 07:58:56;;;;;;;7.90;6.03;;;5.40;76.90;;;;;;4989277;28;20112;-80
2021/12/14 08:01:22;;;;;;;8.93;5.73;;;5.40;76.50;;;;;;4980211;28;20111;-80
2021/12/14 08:03:57;;;;;;;8.20;6.27;;;5.30;76.30;;;;;;4967372;28;20026;-80
2021/12/14 08:06:23;;;;;;;10.57;7.83;;;5.10;76.80;;;;;;4959508;28;20027;-80
2021/12/14 08:08:54;;;;;;;13.30;8.13;;;5.20;77.30;;;;;;4967836;28;20030;-80
2021/12/14 08:11:40;;;;;;;16.10;11.63;;;5.30;77.20;;;;;;4980951;28;20035;-80
2021/12/14 08:14:16;;;;;;;16.03;10.77;;;5.30;77.00;;;;;;4977310;28;20077;-80
2021/12/14 08:16:53;;;;;;;15.90;9.47;;;5.30;77.20;;;;;;4967833;28;20034;-80
2021/12/14 08:19:31;;;;;;;11.70;8.20;;;5.40;77.00;;;;;;4964200;28;20031;-80
2021/12/14 08:22:00;;;;;;;12.37;8.20;;;5.40;77.10;;;;;;4962178;28;20462;-81
2021/12/14 08:24:26;;;;;;;10.57;7.40;;;5.40;77.10;;;;;;4961072;28;20046;-81
2021/12/14 08:26:55;;;;;;;9.77;7.63;;;5.40;76.90;;;;;;4981663;28;20374;-80
2021/12/14 08:29:31;;;;;;;12.47;7.53;;;5.50;77.00;;;;;;4964699;28;20031;-81
2021/12/14 08:32:12;;;;;;;8.93;6.50;;;5.50;76.80;;;;;;4961724;28;20545;-81
2021/12/14 08:34:42;;;;;;;8.97;5.90;;;5.40;76.20;;;;;;4963636;28;20493;-81
2021/12/14 08:37:13;;;;;;;10.80;6.97;;;5.30;76.50;;;;;;4963602;28;20104;-80
2021/12/14 08:40:05;;;;;;;7.43;5.00;;;5.50;77.10;;;;;;4976334;28;20097;-80
2021/12/14 08:42:42;;;;;;;12.37;7.97;;;5.60;76.90;;;;;;4968311;28;20038;-81
2021/12/14 08:45:26;;;;;;;12.00;8.03;;;5.50;76.70;;;;;;4961350;28;20034;-81
2021/12/14 08:48:16;;;;;;;13.13;8.57;;;5.60;76.70;;;;;;4981415;28;20038;-80
2021/12/14 08:50:47;;;;;;;12.87;9.30;;;5.60;76.80;;;;;;4977545;28;20493;-80
2021/12/14 08:53:14;;;;;;;11.90;8.67;;;5.60;76.70;;;;;;4969723;28;20033;-81
2021/12/14 08:55:44;;;;;;;11.53;8.27;;;5.60;76.50;;;;;;4977421;28;20041;-80
2021/12/14 08:58:11;;;;;;;9.77;6.83;;;5.50;76.50;;;;;;4981142;28;21564;-81
2021/12/14 09:00:41;;;;;;;9.93;6.83;;;5.50;76.50;;;;;;4969783;28;20039;-80
2021/12/14 09:03:10;;;;;;;9.43;7.10;;;5.50;76.50;;;;;;4960460;28;20029;-81
2021/12/14 09:05:41;;;;;;;8.77;6.70;;;5.50;76.40;;;;;;4983102;28;20382;-81
2021/12/14 09:08:07;;;;;;;9.07;6.93;;;5.50;76.40;;;;;;4983612;28;20044;-81
2021/12/14 09:10:35;;;;;;;9.80;6.07;;;5.40;76.30;;;;;;4974084;28;20117;-81
2021/12/14 09:13:07;;;;;;;7.40;5.00;;;5.40;76.70;;;;;;4980170;28;20078;-81
2021/12/14 09:15:41;;;;;;;8.03;5.77;;;5.40;76.60;;;;;;4983731;28;20394;-81
2021/12/14 09:18:07;;;;;;;7.93;5.30;;;5.60;76.90;;;;;;4986007;28;20035;-80
2021/12/14 09:20:40;;;;;;;9.47;6.50;;;5.70;76.40;;;;;;4978191;28;20055;-81
2021/12/14 09:23:11;;;;;;;10.67;6.70;;;5.70;76.00;;;;;;4966396;28;20494;-80
2021/12/14 09:25:39;;;;;;;7.07;5.40;;;5.70;75.90;;;;;;4957279;28;20031;-81
2021/12/14 09:28:06;;;;;;;9.03;5.30;;;5.70;75.60;;;;;;4963437;28;20023;-81
2021/12/14 09:30:43;;;;;;;8.77;6.33;;;5.70;76.10;;;;;;4975079;28;20510;-81
2021/12/14 09:33:10;;;;;;;9.57;5.90;;;5.80;75.80;;;;;;4972451;28;20114;-81
2021/12/14 09:35:37;;;;;;;11.70;8.97;;;5.80;75.50;;;;;;4971752;28;20034;-81
2021/12/14 09:38:07;;;;;;;14.53;8.60;;;5.70;75.60;;;;;;4971784;28;20500;-81
2021/12/14 09:40:38;;;;;;;15.63;10.70;;;5.70;75.90;;;;;;4960469;28;20042;-81
2021/12/14 09:43:05;;;;;;;13.20;8.50;;;5.70;76.00;;;;;;4983995;28;20027;-81
2021/12/14 09:45:43;;;;;;;12.07;9.03;;;5.80;76.20;;;;;;4976111;28;20055;-81
2021/12/14 09:48:11;;;;;;;11.77;8.90;;;5.80;75.90;;;;;;4982363;28;20031;-81
2021/12/14 09:50:38;;;;;;;14.50;10.37;;;5.80;76.30;;;;;;4970059;28;20490;-81
2021/12/14 09:53:09;;;;;;;13.07;8.33;;;5.90;75.90;;;;;;4957313;28;20034;-81
2021/12/14 09:55:38;;;;;;;14.00;8.17;;;6.10;76.30;;;;;;4976068;28;20031;-81
2021/12/14 09:58:12;;;;;;;12.47;9.47;;;6.30;75.80;;;;;;4984203;28;20437;-81
2021/12/14 10:00:47;;;;;;;9.33;5.63;;;6.50;75.60;;;;;;4963766;28;20560;-80
2021/12/14 10:03:14;;;;;;;8.73;6.47;;;6.80;75.00;;;;;;4981965;28;20014;-80
2021/12/14 10:05:45;;;;;;;10.37;6.80;;;7.00;74.60;;;;;;4974542;28;20050;-80
2021/12/14 10:08:21;;;;;;;7.17;5.53;;;7.10;73.90;;;;;;4974982;28;20019;-80
2021/12/14 10:10:57;;;;;;;7.77;5.97;;;7.10;74.20;;;;;;4957217;28;20034;-81
2021/12/14 10:13:23;;;;;;;8.90;6.17;;;7.30;73.80;;;;;;4973971;28;20030;-81
2021/12/14 10:15:52;;;;;;;7.70;5.63;;;7.40;73.60;;;;;;4981648;28;20486;-80
2021/12/14 10:18:23;;;;;;;7.60;5.67;;;7.50;73.30;;;;;;4966985;28;20030;-80
2021/12/14 10:20:54;;;;;;;11.87;5.80;;;7.60;72.90;;;;;;4980266;28;20114;-82
2021/12/14 10:23:22;;;;;;;9.17;5.80;;;7.80;72.50;;;;;;4965302;28;20030;-81
2021/12/14 10:25:51;;;;;;;11.73;5.07;;;7.70;71.10;;;;;;4979125;28;20026;-80
2021/12/14 10:28:17;;;;;;;8.10;4.63;;;7.60;70.70;;;;;;4959055;28;20034;-80
2021/12/14 10:30:54;;;;;;;6.53;4.57;;;7.60;70.80;;;;;;4961708;28;20034;-80
2021/12/14 10:33:21;;;;;;;7.73;4.97;;;7.70;70.20;;;;;;4955088;28;20054;-80
2021/12/14 10:35:54;;;;;;;8.07;4.80;;;7.80;69.80;;;;;;4958199;28;20030;-80
2021/12/14 10:38:34;;;;;;;7.77;5.17;;;8.00;69.60;;;;;;4962460;28;20031;-80
2021/12/14 10:43:59;;;;;;;7.10;4.87;;;8.20;69.80;;;;;;4981890;28;20046;-80
2021/12/14 10:46:34;;;;;;;8.80;4.60;;;8.30;69.80;;;;;;4985968;28;20023;-80
2021/12/14 10:49:00;;;;;;;5.93;4.53;;;8.40;69.50;;;;;;4960430;28;20486;-81
2021/12/14 10:51:35;;;;;;;6.47;4.53;;;8.50;69.50;;;;;;4959751;28;20035;-80
2021/12/14 10:54:06;;;;;;;7.00;4.63;;;8.60;69.00;;;;;;4958506;28;20027;-80
2021/12/14 10:56:36;;;;;;;9.40;5.77;;;8.60;68.40;;;;;;4982873;28;20035;-80
2021/12/14 10:59:06;;;;;;;8.53;4.80;;;8.50;68.50;;;;;;4959355;28;20033;-80
2021/12/14 11:01:34;;;;;;;7.27;4.93;;;8.50;68.30;;;;;;4975608;28;20114;-80
2021/12/14 11:04:08;;;;;;;7.97;5.50;;;8.50;68.60;;;;;;4959000;28;20108;-80
2021/12/14 11:06:37;;;;;;;8.83;5.93;;;8.60;68.20;;;;;;4979917;28;20080;-80
2021/12/14 11:11:44;;;;;;;4.80;3.27;;;8.60;68.00;;;;;;4979633;28;20425;-80
2021/12/14 11:14:13;;;;;;;6.70;4.07;;;8.60;67.80;;;;;;4956510;28;20045;-81
2021/12/14 11:19:41;;;;;;;7.27;5.13;;;8.60;68.10;;;;;;4978473;28;20089;-80
2021/12/14 11:22:15;;;;;;;6.07;4.07;;;8.70;68.20;;;;;;4961530;28;20058;-80
2021/12/14 11:24:46;;;;;;;5.80;3.80;;;9.00;68.80;;;;;;4977593;28;20042;-80
2021/12/14 11:27:18;;;;;;;7.20;4.10;;;9.10;67.70;;;;;;4979335;28;20049;-81
2021/12/14 11:29:45;;;;;;;7.10;3.95;;;9.30;67.50;;;;;;4963374;28;20499;-80
2021/12/14 11:32:20;;;;;;;6.57;3.80;;;9.30;67.20;;;;;;4965525;28;20081;-80
2021/12/14 11:34:48;;;;;;;6.77;3.70;;;9.20;66.90;;;;;;4963008;28;20398;-80
2021/12/14 11:37:21;;;;;;;5.40;3.93;;;9.00;66.40;;;;;;4980579;28;20027;-80
2021/12/14 11:39:52;;;;;;;6.83;4.00;;;9.00;66.90;;;;;;4964131;28;20055;-79
2021/12/14 11:42:18;;;;;;;6.53;4.03;;;9.10;66.60;;;;;;4981846;28;20097;-79
2021/12/14 11:44:50;;;;;;;11.20;4.13;;;9.00;66.50;;;;;;4958994;28;20030;-79
2021/12/14 11:50:31;;;;;;;6.47;4.20;;;8.70;66.50;;;;;;4979561;28;20042;-79
2021/12/14 11:53:14;;;;;;;5.93;4.17;;;8.40;66.50;;;;;;4956405;28;20122;-79
2021/12/14 11:55:51;;;;;;;5.53;4.05;;;8.30;67.10;;;;;;4966292;28;20042;-79
2021/12/14 11:58:51;;;;;;;15.07;3.87;;;8.10;67.70;;;;;;4981572;28;20109;-79
2021/12/14 12:01:48;;;;;;;5.33;3.30;;;8.10;68.00;;;;;;4963773;28;20043;-80
2021/12/14 12:04:20;;;;;;;4.57;3.30;;;8.20;68.10;;;;;;4974472;28;20406;-80
2021/12/14 12:09:35;;;;;;;5.93;4.23;;;8.20;68.30;;;;;;4979088;28;20027;-80
2021/12/14 12:12:06;;;;;;;5.63;4.03;;;8.20;68.40;;;;;;4977378;28;20034;-80
2021/12/14 12:14:59;;;;;;;7.07;4.70;;;8.20;68.60;;;;;;4964531;28;20402;-80
2021/12/14 12:17:34;;;;;;;6.88;4.78;;;8.30;68.60;;;;;;4971369;28;20076;-80
2021/12/14 12:20:25;;;;;;;13.40;6.13;;;8.30;68.80;;;;;;4980926;28;20030;-80
2021/12/14 12:22:56;;;;;;;8.60;5.60;;;8.30;68.70;;;;;;4980635;28;20484;-80
2021/12/14 12:25:27;;;;;;;7.00;5.50;;;8.30;68.90;;;;;;4982746;28;20040;-80
2021/12/14 12:28:09;;;;;;;7.90;5.70;;;8.30;68.90;;;;;;4959532;28;20029;-80
2021/12/14 12:31:00;;;;;;;8.65;6.15;;;8.30;69.80;;;;;;4981044;28;20022;-80
2021/12/14 12:33:34;;;;;;;9.40;6.67;;;8.30;69.30;;;;;;4987400;28;20030;-79
2021/12/14 12:36:14;;;;;;;9.07;6.00;;;8.30;69.40;;;;;;4964109;28;20030;-79
2021/12/14 12:39:00;;;;;;;8.57;6.47;;;8.40;69.50;;;;;;4979091;28;20137;-80
2021/12/14 12:41:49;;;;;;;9.07;6.00;;;8.40;69.40;;;;;;4980925;28;20063;-80
2021/12/14 12:44:28;;;;;;;8.30;5.77;;;8.40;69.50;;;;;;4979472;28;20069;-80
2021/12/14 12:47:00;;;;;;;7.90;5.17;;;8.40;69.50;;;;;;4986224;28;20027;-80
2021/12/14 12:49:28;;;;;;;9.30;6.47;;;8.40;69.90;;;;;;4990349;28;20105;-80
2021/12/14 12:52:04;;;;;;;10.37;6.50;;;8.40;69.90;;;;;;4963169;28;20050;-80
2021/12/14 12:54:31;;;;;;;8.30;6.00;;;8.40;69.90;;;;;;4956937;28;20109;-80
2021/12/14 12:57:30;;;;;;;8.37;5.83;;;8.50;70.20;;;;;;4963012;28;20050;-80
2021/12/14 13:00:29;;;;;;;8.47;6.60;;;8.60;70.20;;;;;;4981286;28;20034;-80
2021/12/14 13:03:25;;;;;;;9.33;6.40;;;8.70;70.00;;;;;;4960382;28;20122;-80
2021/12/14 13:06:07;;;;;;;8.63;5.63;;;8.70;70.60;;;;;;4974488;28;20383;-80
2021/12/14 13:08:37;;;;;;;8.17;5.57;;;8.70;69.80;;;;;;4964465;28;20467;-80
2021/12/14 13:11:26;;;;;;;7.73;5.67;;;8.80;69.80;;;;;;4962443;28;20023;-80
2021/12/14 13:14:00;;;;;;;7.70;5.13;;;8.80;69.70;;;;;;4953667;28;20426;-80
2021/12/14 13:16:37;;;;;;;6.80;4.50;;;8.80;69.70;;;;;;4980507;28;20375;-80
2021/12/14 13:19:22;;;;;;;7.07;4.87;;;8.90;69.60;;;;;;4984881;28;20038;-80
2021/12/14 13:21:53;;;;;;;9.37;6.10;;;8.90;69.60;;;;;;4979415;28;20030;-80
2021/12/14 13:24:28;;;;;;;10.63;5.90;;;8.90;69.60;;;;;;4960321;28;20046;-80
2021/12/14 13:27:10;;;;;;;12.40;5.77;;;8.90;69.60;;;;;;4958870;28;20074;-80
2021/12/14 13:29:48;;;;;;;9.20;5.38;;;8.90;69.70;;;;;;4975617;28;20039;-80
2021/12/14 13:32:20;;;;;;;9.00;5.67;;;8.80;69.70;;;;;;4981199;28;20018;-80
2021/12/14 13:35:09;;;;;;;9.50;5.32;;;8.80;69.90;;;;;;4982607;28;20031;-79
2021/12/14 13:37:39;;;;;;;6.73;5.00;;;8.80;70.10;;;;;;4959738;28;20038;-80
2021/12/14 13:40:17;;;;;;;9.63;5.67;;;8.90;70.20;;;;;;4971680;28;20050;-80
2021/12/14 13:43:09;;;;;;;9.17;5.17;;;8.90;70.10;;;;;;4961564;28;20030;-80
2021/12/14 13:46:00;;;;;;;10.07;4.80;;;8.90;70.20;;;;;;4961607;28;20049;-80
2021/12/14 13:48:29;;;;;;;10.77;5.63;;;8.90;70.20;;;;;;4959707;28;20175;-80
2021/12/14 13:51:04;;;;;;;12.33;6.23;;;8.90;70.10;;;;;;4983923;28;20034;-80
2021/12/14 13:53:30;;;;;;;11.73;6.40;;;8.80;70.20;;;;;;4958759;28;20077;-80
2021/12/14 13:55:59;;;;;;;14.53;6.20;;;8.80;70.20;;;;;;4981064;28;20065;-80
2021/12/14 13:58:29;;;;;;;12.30;6.40;;;8.80;70.20;;;;;;4960574;28;20061;-80
2021/12/14 14:01:00;;;;;;;14.53;6.27;;;8.70;70.20;;;;;;4979544;28;20492;-80
2021/12/14 14:03:33;;;;;;;12.57;7.03;;;8.70;70.20;;;;;;4972949;28;20493;-80
2021/12/14 14:06:03;;;;;;;12.48;7.68;;;8.70;70.40;;;;;;4984247;28;20026;-79